Time;durP1;ratioP1;P1;durP2;ratioP2;P2;SDS_P1;SDS_P2;PMS_P1;PMS_P2;Temp;Humidity;BMP_temperature;BMP_pressure;BME280_temperature;BME280_humidity;BME280_pressure;Samples;Min_cycle;Max_cycle;Signal;HPM_P1;HPM_P2
2022/11/24 00:02:16;;;;;;;14.27;3.28;;;9.60;99.90;;;;;;4984461;28;20029;-77
2022/11/24 00:04:41;;;;;;;16.77;2.72;;;9.60;99.90;;;;;;5003026;28;20018;-75
2022/11/24 00:07:07;;;;;;;18.10;2.65;;;9.60;99.90;;;;;;4985841;28;20018;-76
2022/11/24 00:09:32;;;;;;;15.77;2.85;;;9.60;99.90;;;;;;4986874;28;20042;-74
2022/11/24 00:12:00;;;;;;;16.23;2.65;;;9.50;99.90;;;;;;4987211;28;20049;-77
2022/11/24 00:14:26;;;;;;;14.15;2.55;;;9.60;99.90;;;;;;4985849;28;20081;-76
2022/11/24 00:16:53;;;;;;;12.32;2.80;;;9.50;99.90;;;;;;4986223;28;20030;-76
2022/11/24 00:19:19;;;;;;;18.30;3.60;;;9.50;99.90;;;;;;4986462;28;20031;-76
2022/11/24 00:21:47;;;;;;;20.80;3.10;;;9.50;99.90;;;;;;4988325;28;20041;-76
2022/11/24 00:24:12;;;;;;;16.15;2.33;;;9.60;99.90;;;;;;4982510;28;20057;-75
2022/11/24 00:26:38;;;;;;;15.70;2.95;;;9.50;99.90;;;;;;4985638;28;20424;-76
2022/11/24 00:29:06;;;;;;;24.42;3.03;;;9.50;99.90;;;;;;4987020;28;20030;-75
2022/11/24 00:31:37;;;;;;;18.33;3.20;;;9.50;99.90;;;;;;4987721;28;20502;-75
2022/11/24 00:34:05;;;;;;;15.05;2.58;;;9.50;99.90;;;;;;4983853;28;20458;-76
2022/11/24 00:36:33;;;;;;;23.75;2.88;;;9.50;99.90;;;;;;4982177;28;20030;-76
2022/11/24 00:39:09;;;;;;;18.88;2.67;;;9.50;99.90;;;;;;4985268;28;20061;-75
2022/11/24 00:41:34;;;;;;;20.67;2.90;;;9.50;99.90;;;;;;4988460;28;20121;-76
2022/11/24 00:44:00;;;;;;;18.45;2.92;;;9.50;99.90;;;;;;4983441;28;20503;-76
2022/11/24 00:46:29;;;;;;;18.08;2.92;;;9.50;99.90;;;;;;4985704;28;20040;-75
2022/11/24 00:48:55;;;;;;;14.90;2.60;;;9.50;99.90;;;;;;4984137;28;20031;-74
2022/11/24 00:51:25;;;;;;;15.75;2.33;;;9.50;99.90;;;;;;4984436;28;20018;-76
2022/11/24 00:53:52;;;;;;;18.17;3.85;;;9.50;99.90;;;;;;4986042;28;20034;-76
2022/11/24 00:56:18;;;;;;;18.85;2.60;;;9.40;99.90;;;;;;4983439;28;20072;-76
2022/11/24 00:58:43;;;;;;;18.00;3.10;;;9.50;99.90;;;;;;4987918;28;20042;-76
2022/11/24 01:01:15;;;;;;;16.33;2.70;;;9.40;99.90;;;;;;4985713;28;20026;-75
2022/11/24 01:03:45;;;;;;;17.13;3.20;;;9.40;99.90;;;;;;4984643;28;20050;-78
2022/11/24 01:06:13;;;;;;;17.55;2.50;;;9.50;99.90;;;;;;4987228;28;20505;-74
2022/11/24 01:08:42;;;;;;;15.35;2.80;;;9.50;99.90;;;;;;4992475;28;20034;-74
2022/11/24 01:11:19;;;;;;;19.88;2.65;;;9.50;99.90;;;;;;4986963;28;20022;-76
2022/11/24 01:13:47;;;;;;;27.67;2.50;;;9.50;99.90;;;;;;4984653;28;20045;-74
2022/11/24 01:16:19;;;;;;;17.15;3.00;;;9.50;99.90;;;;;;4984138;28;20097;-76
2022/11/24 01:18:46;;;;;;;14.98;2.67;;;9.50;99.90;;;;;;4988805;28;20098;-76
2022/11/24 01:21:12;;;;;;;18.15;3.08;;;9.50;99.90;;;;;;4990787;28;20030;-75
2022/11/24 01:23:40;;;;;;;20.42;3.38;;;9.50;99.90;;;;;;4984340;28;20399;-77
2022/11/24 01:26:07;;;;;;;23.65;2.63;;;9.60;99.90;;;;;;4983491;28;20530;-75
2022/11/24 01:28:33;;;;;;;15.80;2.63;;;9.50;99.90;;;;;;4981314;28;20035;-75
2022/11/24 01:31:05;;;;;;;15.15;2.60;;;9.50;99.90;;;;;;4985775;28;20429;-75
2022/11/24 01:33:31;;;;;;;16.90;2.08;;;9.60;99.90;;;;;;4988086;28;20122;-76
2022/11/24 01:35:57;;;;;;;12.32;2.60;;;9.50;99.90;;;;;;5006326;28;20081;-75
2022/11/24 01:38:24;;;;;;;13.25;2.50;;;9.60;99.90;;;;;;4985718;28;20030;-75
2022/11/24 01:41:01;;;;;;;22.15;3.03;;;9.60;99.90;;;;;;4985172;28;20058;-74
2022/11/24 01:43:29;;;;;;;15.70;2.08;;;9.60;99.90;;;;;;4979907;28;20026;-78
2022/11/24 01:45:55;;;;;;;21.52;3.03;;;9.70;99.90;;;;;;4982802;28;20031;-77
2022/11/24 01:48:33;;;;;;;15.35;2.38;;;9.70;99.90;;;;;;4982481;28;20030;-81
2022/11/24 01:51:24;;;;;;;17.48;2.72;;;9.60;99.90;;;;;;4984550;28;20027;-75
2022/11/24 01:54:08;;;;;;;21.38;2.63;;;9.70;99.90;;;;;;4980784;28;20023;-75
2022/11/24 01:56:37;;;;;;;17.30;2.63;;;9.70;99.90;;;;;;4984604;28;20085;-75
2022/11/24 01:59:06;;;;;;;17.50;2.75;;;9.70;99.90;;;;;;4999536;28;20067;-74
2022/11/24 02:01:31;;;;;;;16.95;2.55;;;9.70;99.90;;;;;;4999275;28;20030;-76
2022/11/24 02:04:02;;;;;;;19.70;3.00;;;9.70;99.90;;;;;;4983571;28;20034;-76
2022/11/24 02:06:30;;;;;;;20.65;3.42;;;9.60;99.90;;;;;;4980772;28;20022;-75
2022/11/24 02:09:15;;;;;;;12.65;3.00;;;9.50;99.90;;;;;;4983891;28;20081;-78
2022/11/24 02:11:43;;;;;;;13.38;2.40;;;9.50;99.90;;;;;;4986327;28;20025;-74
2022/11/24 02:14:14;;;;;;;22.13;2.95;;;9.60;99.90;;;;;;4985280;28;20038;-75
2022/11/24 02:16:47;;;;;;;20.90;2.47;;;9.60;99.90;;;;;;4984278;28;20033;-75
2022/11/24 02:19:48;;;;;;;23.10;3.20;;;9.60;99.90;;;;;;4982649;28;20106;-76
2022/11/24 02:22:55;;;;;;;13.10;2.70;;;9.50;99.90;;;;;;4971426;28;20189;-75
2022/11/24 02:25:35;;;;;;;15.93;2.70;;;9.60;99.90;;;;;;4979487;28;20042;-74
2022/11/24 02:28:07;;;;;;;18.00;2.70;;;9.60;99.90;;;;;;4982973;28;20033;-75
2022/11/24 02:30:35;;;;;;;16.17;2.33;;;9.60;99.90;;;;;;4985220;28;20046;-75
2022/11/24 02:33:01;;;;;;;20.58;3.03;;;9.50;99.90;;;;;;4984443;28;20019;-77
2022/11/24 02:35:27;;;;;;;18.55;2.50;;;9.60;99.90;;;;;;4985481;28;20073;-74
2022/11/24 02:37:53;;;;;;;12.77;2.38;;;9.60;99.90;;;;;;4985053;28;20022;-76
2022/11/24 02:40:24;;;;;;;13.98;2.05;;;9.70;99.90;;;;;;4983556;28;20352;-77
2022/11/24 02:42:55;;;;;;;19.05;3.20;;;9.60;99.90;;;;;;4986128;28;20040;-75
2022/11/24 02:45:23;;;;;;;19.90;3.22;;;9.70;99.90;;;;;;4984596;28;20073;-74
2022/11/24 02:47:48;;;;;;;20.85;2.92;;;9.70;99.90;;;;;;4985399;28;20169;-74
2022/11/24 02:50:14;;;;;;;19.60;3.28;;;9.70;99.90;;;;;;5007124;28;20125;-74
2022/11/24 02:52:40;;;;;;;17.90;2.38;;;9.70;99.90;;;;;;4987076;28;20030;-75
2022/11/24 02:55:06;;;;;;;23.13;2.90;;;9.70;99.90;;;;;;4988054;28;20053;-75
2022/11/24 02:57:32;;;;;;;15.77;2.03;;;9.60;99.90;;;;;;4987015;28;20309;-74
2022/11/24 02:59:57;;;;;;;17.38;2.38;;;9.70;99.90;;;;;;4988702;28;20368;-72
2022/11/24 03:02:26;;;;;;;17.55;3.20;;;9.70;99.90;;;;;;4985238;28;20038;-72
2022/11/24 03:04:51;;;;;;;12.32;2.05;;;9.70;99.90;;;;;;4986093;28;20026;-72
2022/11/24 03:07:19;;;;;;;14.93;2.72;;;9.80;99.90;;;;;;4986306;28;20423;-72
2022/11/24 03:09:44;;;;;;;20.95;3.33;;;9.70;99.90;;;;;;4985857;28;20040;-72
2022/11/24 03:12:10;;;;;;;14.70;2.42;;;9.80;99.90;;;;;;4985706;28;20023;-72
2022/11/24 03:14:36;;;;;;;20.38;2.50;;;9.80;99.90;;;;;;4986217;28;20036;-71
2022/11/24 03:17:01;;;;;;;17.98;2.78;;;9.90;99.90;;;;;;4986662;28;20102;-72
2022/11/24 03:19:27;;;;;;;16.88;2.42;;;9.80;99.90;;;;;;4984623;28;20045;-70
2022/11/24 03:21:53;;;;;;;25.17;3.58;;;9.80;99.90;;;;;;4985748;28;20033;-72
2022/11/24 03:24:18;;;;;;;22.48;3.17;;;9.80;99.90;;;;;;4988897;28;20026;-72
2022/11/24 03:26:44;;;;;;;19.45;3.28;;;9.80;99.90;;;;;;4984487;28;20468;-73
2022/11/24 03:29:10;;;;;;;17.83;3.03;;;9.80;99.90;;;;;;4984021;28;20045;-71
2022/11/24 03:31:38;;;;;;;20.35;3.92;;;9.80;99.90;;;;;;4982720;28;20730;-70
2022/11/24 03:34:08;;;;;;;24.75;3.10;;;9.90;99.90;;;;;;4984676;28;20482;-72
2022/11/24 03:36:33;;;;;;;23.77;3.10;;;9.80;99.90;;;;;;4983210;28;20030;-72
2022/11/24 03:39:02;;;;;;;16.02;2.60;;;9.70;99.90;;;;;;5002874;28;20447;-71
2022/11/24 03:41:27;;;;;;;15.63;2.80;;;9.70;99.90;;;;;;4985976;28;20039;-74
2022/11/24 03:43:53;;;;;;;13.95;2.40;;;9.60;99.90;;;;;;4985059;28;20022;-75
2022/11/24 03:46:19;;;;;;;9.93;2.05;;;9.60;99.90;;;;;;4987102;28;20632;-73
2022/11/24 03:48:49;;;;;;;16.33;3.33;;;9.50;99.90;;;;;;4983648;28;20027;-71
2022/11/24 03:51:15;;;;;;;24.73;3.40;;;9.60;99.90;;;;;;4985964;28;20022;-71
2022/11/24 03:53:41;;;;;;;17.90;2.88;;;9.60;99.90;;;;;;4998776;28;20447;-73
2022/11/24 03:56:07;;;;;;;25.73;3.30;;;9.60;99.90;;;;;;4986605;28;20685;-71
2022/11/24 03:58:32;;;;;;;17.00;2.25;;;9.60;99.90;;;;;;4984526;28;20030;-71
2022/11/24 04:00:58;;;;;;;26.25;2.90;;;9.70;99.90;;;;;;4984570;28;20136;-72
2022/11/24 04:03:24;;;;;;;19.10;3.47;;;9.50;99.90;;;;;;4985847;28;20026;-73
2022/11/24 04:05:50;;;;;;;14.70;2.13;;;9.60;99.90;;;;;;4981867;28;20034;-72
2022/11/24 04:08:16;;;;;;;19.63;2.50;;;9.70;99.90;;;;;;4983826;28;20022;-72
2022/11/24 04:10:44;;;;;;;26.40;2.85;;;9.60;99.90;;;;;;4985305;28;20022;-72
2022/11/24 04:13:14;;;;;;;10.98;2.40;;;9.70;99.90;;;;;;4982286;28;20237;-72
2022/11/24 04:15:41;;;;;;;17.48;3.35;;;9.70;99.90;;;;;;4983728;28;20045;-72
2022/11/24 04:18:07;;;;;;;24.00;3.17;;;9.70;99.90;;;;;;4982380;28;20023;-77
2022/11/24 04:20:33;;;;;;;22.02;3.20;;;9.70;99.90;;;;;;4986310;28;20447;-73
2022/11/24 04:23:01;;;;;;;15.23;2.67;;;9.70;99.90;;;;;;4986621;28;20022;-71
2022/11/24 04:25:29;;;;;;;33.08;3.50;;;9.70;99.90;;;;;;4988414;28;20037;-72
2022/11/24 04:27:55;;;;;;;19.15;2.55;;;9.70;99.90;;;;;;4983706;28;20121;-73
2022/11/24 04:30:25;;;;;;;24.50;3.55;;;9.80;99.90;;;;;;4983520;28;20161;-73
2022/11/24 04:32:51;;;;;;;22.13;2.58;;;9.80;99.90;;;;;;4982842;28;20109;-72
2022/11/24 04:35:17;;;;;;;19.02;3.15;;;9.90;99.90;;;;;;4985715;28;20211;-71
2022/11/24 04:37:43;;;;;;;14.32;2.95;;;9.90;99.90;;;;;;4981983;28;20033;-71
2022/11/24 04:40:10;;;;;;;31.90;3.75;;;9.80;99.90;;;;;;4981600;28;20035;-72
2022/11/24 04:42:36;;;;;;;13.63;2.92;;;9.80;99.90;;;;;;4982900;28;20138;-70
2022/11/24 04:45:02;;;;;;;20.42;3.28;;;9.80;99.90;;;;;;4984671;28;20109;-72
2022/11/24 04:47:28;;;;;;;24.10;3.00;;;9.80;99.90;;;;;;4983804;28;20050;-69
2022/11/24 04:49:54;;;;;;;23.13;4.13;;;9.80;99.90;;;;;;4981028;28;20030;-72
2022/11/24 04:52:21;;;;;;;13.30;3.47;;;9.80;99.90;;;;;;4982596;28;20053;-72
2022/11/24 04:54:50;;;;;;;17.67;3.92;;;9.80;99.90;;;;;;4983336;28;20026;-71
2022/11/24 04:57:21;;;;;;;24.65;3.40;;;9.90;99.90;;;;;;4982497;28;20038;-71
2022/11/24 04:59:47;;;;;;;19.05;2.90;;;9.90;99.90;;;;;;4984972;28;20084;-72
2022/11/24 05:02:13;;;;;;;13.75;2.95;;;9.80;99.90;;;;;;4982378;28;20065;-73
2022/11/24 05:04:39;;;;;;;28.35;3.40;;;9.80;99.90;;;;;;4985869;28;20065;-76
2022/11/24 05:07:04;;;;;;;21.20;3.33;;;9.90;99.90;;;;;;4985082;28;20042;-75
2022/11/24 05:09:33;;;;;;;16.95;2.95;;;9.90;99.90;;;;;;4986210;28;20030;-76
2022/11/24 05:11:59;;;;;;;15.43;3.53;;;9.80;99.90;;;;;;4986899;28;20043;-71
2022/11/24 05:14:26;;;;;;;15.70;3.05;;;9.80;99.90;;;;;;4985243;28;20633;-71
2022/11/24 05:16:52;;;;;;;28.90;3.45;;;9.90;99.90;;;;;;4983313;28;20026;-72
2022/11/24 05:19:18;;;;;;;18.90;3.50;;;9.90;99.90;;;;;;4983265;28;20037;-72
2022/11/24 05:21:43;;;;;;;22.27;2.97;;;9.90;99.90;;;;;;4983873;28;20039;-68
2022/11/24 05:24:09;;;;;;;16.73;2.80;;;9.90;99.90;;;;;;4982515;28;20030;-71
2022/11/24 05:26:35;;;;;;;28.75;3.92;;;9.80;99.90;;;;;;4985012;28;20026;-72
2022/11/24 05:29:03;;;;;;;20.98;2.90;;;9.80;99.90;;;;;;4981066;28;20030;-71
2022/11/24 05:31:29;;;;;;;25.17;3.38;;;9.80;99.90;;;;;;4983684;28;20030;-71
2022/11/24 05:33:57;;;;;;;26.35;3.20;;;9.90;99.90;;;;;;4981155;28;20014;-72
2022/11/24 05:39:07;;;;;;;31.02;3.35;;;9.90;99.90;;;;;;4983029;28;20702;-73
2022/11/24 05:41:33;;;;;;;26.85;3.50;;;9.90;99.90;;;;;;4983808;28;20126;-73
2022/11/24 05:44:01;;;;;;;13.65;3.28;;;9.90;99.90;;;;;;4982777;28;20026;-72
2022/11/24 05:46:28;;;;;;;28.80;3.80;;;9.90;99.90;;;;;;4983597;28;20034;-71
2022/11/24 05:48:57;;;;;;;28.95;3.45;;;9.90;99.90;;;;;;4983543;28;20039;-70
2022/11/24 05:51:29;;;;;;;19.08;2.92;;;9.80;99.90;;;;;;4997767;28;20029;-73
2022/11/24 05:53:55;;;;;;;16.00;2.88;;;9.80;99.90;;;;;;4982481;28;20022;-73
2022/11/24 05:56:23;;;;;;;23.80;3.60;;;9.70;99.90;;;;;;4982438;28;20025;-72
2022/11/24 05:58:49;;;;;;;25.70;3.63;;;9.70;99.90;;;;;;4983376;28;20062;-71
2022/11/24 06:01:14;;;;;;;27.58;4.13;;;9.80;99.90;;;;;;4983669;28;20057;-71
2022/11/24 06:03:40;;;;;;;22.80;3.13;;;9.80;99.90;;;;;;4984128;28;20058;-70
2022/11/24 06:06:08;;;;;;;24.45;3.70;;;9.70;99.90;;;;;;4982082;28;20110;-73
2022/11/24 06:08:36;;;;;;;25.05;3.95;;;9.80;99.90;;;;;;4982131;28;20041;-72
2022/11/24 06:11:17;;;;;;;22.08;4.18;;;9.90;99.90;;;;;;4983631;28;20181;-72
2022/11/24 06:13:44;;;;;;;18.88;3.20;;;9.90;99.90;;;;;;4984388;28;20112;-72
2022/11/24 06:16:13;;;;;;;28.33;3.22;;;9.90;99.90;;;;;;4983332;28;20019;-72
2022/11/24 06:18:39;;;;;;;28.83;4.15;;;10.00;99.90;;;;;;4980468;28;20044;-72
2022/11/24 06:21:06;;;;;;;26.70;3.88;;;10.00;99.90;;;;;;4981612;28;20026;-73
2022/11/24 06:23:32;;;;;;;28.40;3.88;;;10.00;99.90;;;;;;4985330;28;20030;-72
2022/11/24 06:25:58;;;;;;;18.45;2.90;;;10.00;99.90;;;;;;4987220;28;20030;-72
2022/11/24 06:28:25;;;;;;;24.30;3.70;;;10.00;99.90;;;;;;4988120;28;20058;-72
2022/11/24 06:30:53;;;;;;;18.42;3.35;;;10.00;99.90;;;;;;4986295;28;20118;-71
2022/11/24 06:33:19;;;;;;;26.75;3.88;;;10.00;99.90;;;;;;4985398;28;20029;-70
2022/11/24 06:35:45;;;;;;;18.45;3.40;;;10.10;99.90;;;;;;4986700;28;20018;-73
2022/11/24 06:38:14;;;;;;;15.32;3.67;;;10.10;99.90;;;;;;4986531;28;20136;-71
2022/11/24 06:40:40;;;;;;;19.58;4.00;;;10.20;99.90;;;;;;4984995;28;20018;-71
2022/11/24 06:43:06;;;;;;;28.35;3.55;;;10.20;99.90;;;;;;4984908;28;20037;-71
2022/11/24 06:45:34;;;;;;;24.30;3.10;;;10.10;99.90;;;;;;4986983;28;20538;-71
2022/11/24 06:47:59;;;;;;;21.70;2.90;;;10.20;99.90;;;;;;5000443;28;20030;-72
2022/11/24 06:50:25;;;;;;;22.05;3.25;;;10.20;99.90;;;;;;4984150;28;20041;-70
2022/11/24 06:52:53;;;;;;;29.88;3.60;;;10.20;99.90;;;;;;4986609;28;20025;-72
2022/11/24 06:55:21;;;;;;;24.65;3.35;;;10.30;99.90;;;;;;4984915;28;20023;-72
2022/11/24 06:57:46;;;;;;;19.25;3.20;;;10.30;99.90;;;;;;4983754;28;20043;-73
2022/11/24 07:00:15;;;;;;;17.45;3.40;;;10.30;99.90;;;;;;4986924;28;20515;-72
2022/11/24 07:02:40;;;;;;;22.45;3.33;;;10.30;99.90;;;;;;4985516;28;20387;-73
2022/11/24 07:05:06;;;;;;;20.65;2.67;;;10.30;99.90;;;;;;4985444;28;20026;-72
2022/11/24 07:07:32;;;;;;;14.48;2.50;;;10.40;99.90;;;;;;4986524;28;20034;-70
2022/11/24 07:10:00;;;;;;;16.27;2.50;;;10.40;99.90;;;;;;4985462;28;20041;-71
2022/11/24 07:12:26;;;;;;;19.50;3.78;;;10.40;99.90;;;;;;4987348;28;20046;-72
2022/11/24 07:14:51;;;;;;;12.82;2.65;;;10.40;99.90;;;;;;4985609;28;20034;-72
2022/11/24 07:17:17;;;;;;;13.23;2.65;;;10.40;99.90;;;;;;4995933;28;20109;-73
2022/11/24 07:19:45;;;;;;;17.25;2.92;;;10.40;99.90;;;;;;4985389;28;20038;-73
2022/11/24 07:22:10;;;;;;;20.00;2.92;;;10.40;99.90;;;;;;4984950;28;20026;-75
2022/11/24 07:24:39;;;;;;;15.77;2.65;;;10.40;99.90;;;;;;4987037;28;20501;-72
2022/11/24 07:27:06;;;;;;;20.48;2.58;;;10.30;99.90;;;;;;4985964;28;20034;-72
2022/11/24 07:29:32;;;;;;;12.48;2.60;;;10.40;99.90;;;;;;5000931;28;20065;-72
2022/11/24 07:31:58;;;;;;;9.43;2.60;;;10.50;99.90;;;;;;4983496;28;20391;-72
2022/11/24 07:34:25;;;;;;;17.75;2.55;;;10.50;99.90;;;;;;4997652;28;20106;-73
2022/11/24 07:36:51;;;;;;;14.73;2.38;;;10.50;99.90;;;;;;5001056;28;20106;-69
2022/11/24 07:39:17;;;;;;;18.15;3.40;;;10.40;99.90;;;;;;4983969;28;20420;-73
2022/11/24 07:41:42;;;;;;;14.77;2.22;;;10.50;99.90;;;;;;4983602;28;20053;-73
2022/11/24 07:44:08;;;;;;;14.55;2.40;;;10.40;99.90;;;;;;4987490;28;20079;-73
2022/11/24 07:46:36;;;;;;;14.52;2.60;;;10.40;99.90;;;;;;4984521;28;20169;-73
2022/11/24 07:49:04;;;;;;;20.00;3.08;;;10.40;99.90;;;;;;4986974;28;20080;-72
2022/11/24 07:51:32;;;;;;;12.68;1.85;;;10.40;99.90;;;;;;4995324;28;20122;-73
2022/11/24 07:54:00;;;;;;;11.35;2.55;;;10.30;99.90;;;;;;4984366;28;20057;-71
2022/11/24 07:56:28;;;;;;;10.45;2.17;;;10.40;99.90;;;;;;4985393;28;20026;-72
2022/11/24 07:58:54;;;;;;;15.98;2.13;;;10.40;99.90;;;;;;4986178;28;20026;-71
2022/11/24 08:01:20;;;;;;;12.95;2.65;;;10.40;99.90;;;;;;4984664;28;20049;-69
2022/11/24 08:03:48;;;;;;;13.38;2.30;;;10.40;99.90;;;;;;4985700;28;20061;-72
2022/11/24 08:06:14;;;;;;;11.65;2.75;;;10.50;99.90;;;;;;4983289;28;20057;-71
2022/11/24 08:08:39;;;;;;;10.13;2.15;;;10.50;99.90;;;;;;5000954;28;20033;-74
2022/11/24 08:11:11;;;;;;;8.73;2.00;;;10.60;99.90;;;;;;4986548;28;20109;-71
2022/11/24 08:13:37;;;;;;;9.40;2.03;;;10.60;99.90;;;;;;4984629;28;20026;-71
2022/11/24 08:16:08;;;;;;;8.93;2.25;;;10.60;99.90;;;;;;4985559;28;21346;-70
2022/11/24 08:18:36;;;;;;;12.75;1.98;;;10.70;99.90;;;;;;4984211;28;20034;-73
2022/11/24 08:21:02;;;;;;;14.23;1.90;;;10.70;99.90;;;;;;4988295;28;20026;-71
2022/11/24 08:23:30;;;;;;;11.45;2.13;;;10.70;99.90;;;;;;4984652;28;20025;-73
2022/11/24 08:25:59;;;;;;;11.52;1.75;;;10.70;99.90;;;;;;4983219;28;20068;-73
2022/11/24 08:28:24;;;;;;;8.32;2.10;;;10.60;99.90;;;;;;4983380;28;20050;-73
2022/11/24 08:30:50;;;;;;;15.57;2.40;;;10.60;99.90;;;;;;4984449;28;20424;-71
2022/11/24 08:33:19;;;;;;;8.07;1.70;;;10.70;99.90;;;;;;4985222;28;20537;-74
2022/11/24 08:35:46;;;;;;;6.20;1.73;;;10.70;99.90;;;;;;4986195;28;20329;-73
2022/11/24 08:38:16;;;;;;;15.77;2.60;;;10.70;99.90;;;;;;4999819;28;20061;-73
2022/11/24 08:40:41;;;;;;;12.30;1.92;;;10.70;99.90;;;;;;4986045;28;20022;-71
2022/11/24 08:43:07;;;;;;;11.95;2.53;;;10.70;99.90;;;;;;4983804;28;20395;-68
2022/11/24 08:45:33;;;;;;;9.80;1.73;;;10.80;99.90;;;;;;4985379;28;20487;-73
2022/11/24 08:48:00;;;;;;;9.13;2.67;;;10.80;99.90;;;;;;4986866;28;20419;-73
2022/11/24 08:50:26;;;;;;;10.07;1.75;;;10.90;99.90;;;;;;4985230;28;20050;-73
2022/11/24 08:52:52;;;;;;;11.90;2.08;;;10.90;99.90;;;;;;4983706;28;20428;-72
2022/11/24 08:55:19;;;;;;;4.72;1.60;;;10.90;99.90;;;;;;4982439;28;20034;-74
2022/11/24 08:57:47;;;;;;;6.50;1.60;;;10.80;99.90;;;;;;4983577;28;20077;-72
2022/11/24 09:00:13;;;;;;;5.90;1.30;;;10.70;99.90;;;;;;4984026;28;20054;-72
2022/11/24 09:02:39;;;;;;;8.90;1.52;;;10.60;99.90;;;;;;4984316;28;20325;-73
2022/11/24 09:05:04;;;;;;;6.70;2.40;;;10.80;99.90;;;;;;5000868;28;20118;-71
2022/11/24 09:07:30;;;;;;;12.40;2.28;;;10.80;99.90;;;;;;4984799;28;20053;-73
2022/11/24 09:09:56;;;;;;;9.85;1.85;;;10.80;99.90;;;;;;4982675;28;20033;-73
2022/11/24 09:12:21;;;;;;;4.82;1.23;;;10.80;99.90;;;;;;4984182;28;20667;-71
2022/11/24 09:14:47;;;;;;;17.42;3.20;;;10.90;99.90;;;;;;4980642;28;20038;-71
2022/11/24 09:17:12;;;;;;;52.63;14.38;;;11.00;99.90;;;;;;4983682;28;20034;-71
2022/11/24 09:19:38;;;;;;;8.02;1.70;;;11.00;99.90;;;;;;4983209;28;20065;-71
2022/11/24 09:22:04;;;;;;;6.20;1.27;;;11.00;99.90;;;;;;4988368;28;20034;-72
2022/11/24 09:24:32;;;;;;;9.07;2.10;;;11.10;99.90;;;;;;4984179;28;20023;-75
2022/11/24 09:26:57;;;;;;;7.10;1.88;;;11.10;99.90;;;;;;4981814;28;20153;-71
2022/11/24 09:29:23;;;;;;;11.63;1.73;;;11.20;99.90;;;;;;4985011;28;20066;-69
2022/11/24 09:31:49;;;;;;;9.32;1.80;;;11.40;99.90;;;;;;4982363;28;20022;-71
2022/11/24 09:34:14;;;;;;;7.63;1.48;;;11.50;99.90;;;;;;4983114;28;20348;-72
2022/11/24 09:36:41;;;;;;;8.68;1.50;;;11.60;99.90;;;;;;4980600;28;20027;-73
2022/11/24 09:39:06;;;;;;;8.20;1.92;;;11.50;99.90;;;;;;4983258;28;20027;-71
2022/11/24 09:41:51;;;;;;;12.15;3.60;;;11.40;99.90;;;;;;4984495;28;20663;-73
2022/11/24 09:44:40;;;;;;;13.50;2.20;;;11.40;99.90;;;;;;4985514;28;20133;-69
2022/11/24 09:47:30;;;;;;;4.50;1.60;;;11.40;99.90;;;;;;4985024;28;20149;-73
2022/11/24 09:49:59;;;;;;;10.40;1.73;;;11.50;99.90;;;;;;4987397;28;20064;-72
2022/11/24 09:52:43;;;;;;;5.95;1.73;;;11.60;99.90;;;;;;4985240;28;20088;-72
2022/11/24 09:55:51;;;;;;;8.65;1.40;;;11.40;99.90;;;;;;4985751;28;20019;-73
2022/11/24 09:58:39;;;;;;;5.72;1.45;;;11.40;99.90;;;;;;4989575;28;20031;-73
2022/11/24 10:01:15;;;;;;;12.73;1.85;;;11.30;99.90;;;;;;4993476;28;20462;-73
2022/11/24 10:03:47;;;;;;;8.13;1.58;;;11.20;99.90;;;;;;4988162;28;20030;-72
2022/11/24 10:06:33;;;;;;;5.53;1.53;;;11.30;99.90;;;;;;4987100;28;20042;-70
2022/11/24 10:09:25;;;;;;;6.25;1.25;;;11.10;99.90;;;;;;4994546;28;20289;-73
2022/11/24 10:12:14;;;;;;;12.05;1.80;;;11.10;99.90;;;;;;4966775;28;20045;-72
2022/11/24 10:14:46;;;;;;;8.63;2.10;;;11.20;99.90;;;;;;5001696;28;20050;-69
2022/11/24 10:17:32;;;;;;;7.43;1.92;;;11.20;99.90;;;;;;4990454;28;20076;-69
2022/11/24 10:20:19;;;;;;;10.57;1.85;;;11.40;99.90;;;;;;4987872;28;20057;-72
2022/11/24 10:23:23;;;;;;;9.30;1.42;;;11.40;99.90;;;;;;4984941;28;20039;-73
2022/11/24 10:25:48;;;;;;;9.77;1.77;;;11.50;99.90;;;;;;4948236;28;20125;-72
2022/11/24 10:28:17;;;;;;;9.98;1.45;;;11.50;99.90;;;;;;4986431;28;20036;-71
2022/11/24 10:30:42;;;;;;;13.00;2.33;;;11.40;99.90;;;;;;5000996;28;20027;-71
2022/11/24 10:33:21;;;;;;;7.18;1.73;;;11.50;99.90;;;;;;4988619;28;20436;-70
2022/11/24 10:36:08;;;;;;;9.40;1.88;;;11.50;99.90;;;;;;4986505;28;20069;-72
2022/11/24 10:39:24;;;;;;;7.65;1.98;;;11.70;99.90;;;;;;4991273;28;21323;-73
2022/11/24 10:41:56;;;;;;;8.68;1.98;;;11.80;99.90;;;;;;4963407;28;20046;-72
2022/11/24 10:44:26;;;;;;;41.33;12.90;;;12.10;99.90;;;;;;5001326;28;20097;-73
2022/11/24 10:46:52;;;;;;;13.68;2.30;;;12.50;99.90;;;;;;4981976;28;20042;-73
2022/11/24 10:49:29;;;;;;;4.55;1.80;;;12.80;99.90;;;;;;4989401;28;20026;-73
2022/11/24 10:52:15;;;;;;;14.43;2.25;;;13.00;99.90;;;;;;4988134;28;20034;-74
2022/11/24 10:55:02;;;;;;;12.93;2.00;;;13.20;99.90;;;;;;4983902;28;20042;-70
2022/11/24 10:57:39;;;;;;;11.05;2.80;;;13.30;99.90;;;;;;4988367;28;20042;-74
2022/11/24 11:00:19;;;;;;;13.27;1.92;;;13.50;99.90;;;;;;4987127;28;20022;-70
2022/11/24 11:02:50;;;;;;;8.63;1.73;;;13.50;99.90;;;;;;4984176;28;20022;-74
2022/11/24 11:05:41;;;;;;;7.05;1.83;;;13.70;99.90;;;;;;4983984;28;20030;-74
2022/11/24 11:08:13;;;;;;;10.50;2.10;;;13.50;99.90;;;;;;4982879;28;20065;-73
2022/11/24 11:10:39;;;;;;;12.43;1.97;;;13.70;99.90;;;;;;4988157;28;20037;-75
2022/11/24 11:13:28;;;;;;;5.28;1.48;;;13.60;99.90;;;;;;4990128;28;20423;-75
2022/11/24 11:16:12;;;;;;;11.68;2.13;;;13.80;99.90;;;;;;4991934;28;20095;-75
2022/11/24 11:18:38;;;;;;;12.45;2.55;;;13.70;99.90;;;;;;4995093;28;20023;-76
2022/11/24 11:21:06;;;;;;;14.68;2.55;;;13.70;99.90;;;;;;4991794;28;20104;-75
2022/11/24 11:23:34;;;;;;;19.70;2.45;;;13.50;99.90;;;;;;4990686;28;20029;-78
2022/11/24 11:26:30;;;;;;;13.82;2.10;;;13.80;99.90;;;;;;4991944;28;20141;-75
2022/11/24 11:29:15;;;;;;;13.02;3.03;;;13.90;99.90;;;;;;4993953;28;20015;-75
2022/11/24 11:31:43;;;;;;;12.38;2.83;;;13.90;99.90;;;;;;4992053;28;20167;-75
2022/11/24 11:34:09;;;;;;;8.52;1.90;;;13.60;99.90;;;;;;4990695;28;20066;-76
2022/11/24 11:36:58;;;;;;;15.40;2.22;;;13.30;99.90;;;;;;4989477;28;20030;-75
2022/11/24 11:39:40;;;;;;;12.32;2.58;;;13.20;99.90;;;;;;4990078;28;20061;-74
2022/11/24 11:42:32;;;;;;;10.15;2.05;;;13.20;99.90;;;;;;4988339;28;20037;-76
2022/11/24 11:45:04;;;;;;;20.25;3.00;;;13.10;99.90;;;;;;4984126;28;20411;-74
2022/11/24 11:47:51;;;;;;;25.63;2.78;;;12.90;99.90;;;;;;4986818;28;20027;-73
2022/11/24 11:50:24;;;;;;;22.13;3.00;;;12.90;99.90;;;;;;4985607;28;20031;-73
2022/11/24 11:53:08;;;;;;;13.88;2.60;;;12.90;99.90;;;;;;4984637;28;20478;-75
2022/11/24 11:55:58;;;;;;;13.75;2.33;;;12.80;99.90;;;;;;4985316;28;20585;-72
2022/11/24 11:58:55;;;;;;;18.65;2.03;;;12.80;99.90;;;;;;4987847;28;20026;-75
2022/11/24 12:01:42;;;;;;;13.98;2.90;;;12.80;99.90;;;;;;5006554;28;20033;-74
2022/11/24 12:04:27;;;;;;;14.52;3.13;;;13.00;99.90;;;;;;4988398;28;20478;-74
2022/11/24 12:07:06;;;;;;;21.00;2.53;;;13.30;99.90;;;;;;4988745;28;20102;-75
2022/11/24 12:10:01;;;;;;;13.00;2.67;;;13.80;99.90;;;;;;4986983;28;20053;-75
2022/11/24 12:12:49;;;;;;;8.77;2.25;;;14.30;99.90;;;;;;4995886;28;20102;-74
2022/11/24 12:15:33;;;;;;;8.20;2.38;;;14.40;99.90;;;;;;4995217;28;20027;-76
2022/11/24 12:18:14;;;;;;;15.32;2.80;;;14.50;99.90;;;;;;4997697;28;20030;-74
2022/11/24 12:21:16;;;;;;;11.25;2.85;;;14.60;99.90;;;;;;4989464;28;20407;-74
2022/11/24 12:23:47;;;;;;;18.00;2.75;;;14.80;99.90;;;;;;4958875;28;20114;-74
2022/11/24 12:26:44;;;;;;;10.38;2.13;;;15.10;99.90;;;;;;4976736;28;20053;-75
2022/11/24 12:29:50;;;;;;;13.48;2.78;;;15.20;99.90;;;;;;4987638;28;20113;-75
2022/11/24 12:32:33;;;;;;;13.00;2.60;;;15.40;99.90;;;;;;4987266;28;20027;-75
2022/11/24 12:35:05;;;;;;;14.88;2.25;;;15.40;99.90;;;;;;4984264;28;20018;-76
2022/11/24 12:37:52;;;;;;;13.60;2.28;;;15.40;99.90;;;;;;4987502;28;20026;-79
2022/11/24 12:40:34;;;;;;;11.90;2.45;;;15.50;99.90;;;;;;4983298;28;20026;-75
2022/11/24 12:43:18;;;;;;;16.67;2.30;;;15.80;99.90;;;;;;4984790;28;20045;-75
2022/11/24 12:45:59;;;;;;;17.05;2.75;;;15.90;99.90;;;;;;4994853;28;20108;-75
2022/11/24 12:48:24;;;;;;;14.45;2.25;;;15.80;99.90;;;;;;4982782;28;20022;-75
2022/11/24 12:50:52;;;;;;;13.68;2.80;;;16.20;99.90;;;;;;4982553;28;20090;-75
2022/11/24 12:53:32;;;;;;;15.20;2.05;;;16.30;99.90;;;;;;4988634;28;20022;-73
2022/11/24 12:56:06;;;;;;;15.45;2.88;;;16.20;99.90;;;;;;4983146;28;20118;-75
2022/11/24 12:58:49;;;;;;;11.18;2.28;;;16.40;99.90;;;;;;4985969;28;20114;-73
2022/11/24 13:01:20;;;;;;;18.90;2.33;;;16.90;99.90;;;;;;4998936;28;20042;-75
2022/11/24 13:04:04;;;;;;;8.05;2.10;;;18.50;98.30;;;;;;4984104;28;20089;-75
2022/11/24 13:06:36;;;;;;;20.92;2.38;;;20.00;94.30;;;;;;4997584;28;20081;-76